createdAt,value
2023-05-25T00:00:10.233Z,14.08
2023-05-25T00:01:10.165Z,14.08
2023-05-25T00:02:10.167Z,14.11
2023-05-25T00:03:10.123Z,14.04
2023-05-25T00:04:10.043Z,14.10
2023-05-25T00:05:09.842Z,14.04
2023-05-25T00:06:09.760Z,14.08
2023-05-25T00:07:09.683Z,14.07
2023-05-25T00:08:09.609Z,14.08
2023-05-25T00:09:09.528Z,14.05
2023-05-25T00:10:09.482Z,14.10
2023-05-25T00:11:09.368Z,14.04
2023-05-25T00:12:09.278Z,14.05
2023-05-25T00:13:09.202Z,14.05
2023-05-25T00:14:09.146Z,14.08
2023-05-25T00:15:09.062Z,14.14
2023-05-25T00:16:08.971Z,14.07
2023-05-25T00:17:08.921Z,14.05
2023-05-25T00:18:08.870Z,14.10
2023-05-25T00:19:08.739Z,14.05
2023-05-25T00:20:08.694Z,14.20
2023-05-25T00:21:08.578Z,14.12
2023-05-25T00:22:08.490Z,14.12
2023-05-25T00:23:08.401Z,14.10
2023-05-25T00:24:08.344Z,14.11
2023-05-25T00:25:08.243Z,14.04
2023-05-25T00:26:08.170Z,14.10
2023-05-25T00:27:08.094Z,14.10
2023-05-25T00:28:08.007Z,14.08
2023-05-25T00:29:07.954Z,14.15
2023-05-25T00:30:07.858Z,14.08
2023-05-25T00:31:07.846Z,14.12
2023-05-25T00:32:07.692Z,14.08
2023-05-25T00:33:07.631Z,14.14
2023-05-25T00:34:07.556Z,14.00
2023-05-25T00:35:07.462Z,14.07
2023-05-25T00:36:07.372Z,14.03
2023-05-25T00:37:07.297Z,14.07
2023-05-25T00:38:07.218Z,14.08
2023-05-25T00:39:07.148Z,14.07
2023-05-25T00:40:07.075Z,14.08
2023-05-25T00:41:06.979Z,14.00
2023-05-25T00:42:06.901Z,14.07
2023-05-25T00:43:06.820Z,14.04
2023-05-25T00:44:06.766Z,14.05
2023-05-25T00:45:06.662Z,14.04
2023-05-25T00:46:06.594Z,14.08
2023-05-25T00:47:06.505Z,14.07
2023-05-25T00:48:06.482Z,14.08
2023-05-25T00:49:06.374Z,14.11
2023-05-25T00:50:06.287Z,14.07
2023-05-25T00:51:06.195Z,14.07
2023-05-25T00:52:06.114Z,14.07
2023-05-25T00:53:06.024Z,14.11
2023-05-25T00:54:05.945Z,14.08
2023-05-25T00:55:05.871Z,14.08
2023-05-25T00:56:05.788Z,14.10
2023-05-25T00:57:05.734Z,14.04
2023-05-25T00:58:05.622Z,14.15
2023-05-25T00:59:05.545Z,14.11
2023-05-25T01:00:05.483Z,14.15
2023-05-25T01:01:05.397Z,14.17
2023-05-25T01:02:05.343Z,14.15
2023-05-25T01:03:05.295Z,14.11
2023-05-25T01:04:05.222Z,14.18
2023-05-25T01:05:05.070Z,14.11
2023-05-25T01:06:04.990Z,14.14
2023-05-25T01:07:04.919Z,14.05
2023-05-25T01:08:04.832Z,14.10
2023-05-25T01:09:04.755Z,14.04
2023-05-25T01:10:04.668Z,14.20
2023-05-25T01:11:04.644Z,14.10
2023-05-25T01:12:04.517Z,14.15
2023-05-25T01:13:04.439Z,14.11
2023-05-25T01:14:04.353Z,14.07
2023-05-25T01:15:04.270Z,14.08
2023-05-25T01:16:04.257Z,14.17
2023-05-25T01:17:04.117Z,14.04
2023-05-25T01:18:04.078Z,14.14
2023-05-25T01:19:03.951Z,14.12
2023-05-25T01:20:10.563Z,14.05
2023-05-25T01:21:03.826Z,14.08
2023-05-25T01:22:03.722Z,14.07
2023-05-25T01:23:03.638Z,14.04
2023-05-25T01:24:03.571Z,14.10
2023-05-25T01:25:03.480Z,14.07
2023-05-25T01:26:03.414Z,14.05
2023-05-25T01:27:03.324Z,14.10
2023-05-25T01:28:03.250Z,14.10
2023-05-25T01:29:03.167Z,14.03
2023-05-25T01:30:03.078Z,14.08
2023-05-25T01:31:03.014Z,14.20
2023-05-25T01:32:02.961Z,14.10
2023-05-25T01:33:02.971Z,14.07
2023-05-25T01:34:02.760Z,14.10
2023-05-25T01:35:02.685Z,14.20
2023-05-25T01:36:02.603Z,14.10
2023-05-25T01:37:02.531Z,14.15
2023-05-25T01:38:02.447Z,14.15
2023-05-25T01:39:02.363Z,14.20
2023-05-25T01:40:02.287Z,14.05
2023-05-25T01:41:02.205Z,14.07
2023-05-25T01:42:02.123Z,14.11
2023-05-25T01:43:02.062Z,14.04
2023-05-25T01:44:01.971Z,14.05
2023-05-25T01:45:01.894Z,14.07
2023-05-25T01:46:01.854Z,14.04
2023-05-25T01:47:01.734Z,14.04
2023-05-25T01:48:01.668Z,14.05
2023-05-25T01:49:01.567Z,13.93
2023-05-25T01:50:01.518Z,14.05
2023-05-25T01:51:01.413Z,14.03
2023-05-25T01:52:01.391Z,13.99
2023-05-25T01:53:01.248Z,13.95
2023-05-25T01:54:01.167Z,14.00
2023-05-25T01:55:01.119Z,14.00
2023-05-25T01:56:01.009Z,14.00
2023-05-25T01:57:00.931Z,13.92
2023-05-25T01:58:00.852Z,13.92
2023-05-25T01:59:00.776Z,14.00
2023-05-25T02:00:00.697Z,14.04
2023-05-25T02:01:00.639Z,13.96
2023-05-25T02:02:00.615Z,14.00
2023-05-25T02:03:00.507Z,13.92
2023-05-25T02:04:00.414Z,14.03
2023-05-25T02:05:00.290Z,13.93
2023-05-25T02:06:00.215Z,14.00
2023-05-25T02:07:00.135Z,14.03
2023-05-25T02:08:00.066Z,13.97
2023-05-25T02:08:59.982Z,13.99
2023-05-25T02:09:59.897Z,14.03
2023-05-25T02:10:59.818Z,14.04
2023-05-25T02:11:59.736Z,13.93
2023-05-25T02:12:59.661Z,13.99
2023-05-25T02:13:59.582Z,14.00
2023-05-25T02:14:59.496Z,14.05
2023-05-25T02:15:59.459Z,14.04
2023-05-25T02:16:59.346Z,14.05
2023-05-25T02:17:59.294Z,14.05
2023-05-25T02:18:59.188Z,14.10
2023-05-25T02:19:59.233Z,14.05
2023-05-25T02:20:59.036Z,13.96
2023-05-25T02:21:58.945Z,13.93
2023-05-25T02:22:58.873Z,13.92
2023-05-25T02:23:58.788Z,13.99
2023-05-25T02:24:58.709Z,14.04
2023-05-25T02:25:58.708Z,13.96
2023-05-25T02:26:58.557Z,14.04
2023-05-25T02:27:58.471Z,14.05
2023-05-25T02:28:58.387Z,14.07
2023-05-25T02:29:58.317Z,14.00
2023-05-25T02:30:58.267Z,14.03
2023-05-25T02:31:58.150Z,14.07
2023-05-25T02:32:58.121Z,14.05
2023-05-25T02:33:58.012Z,14.00
2023-05-25T02:34:57.915Z,14.03
2023-05-25T02:35:57.834Z,13.99
2023-05-25T02:36:57.773Z,14.04
2023-05-25T02:37:57.677Z,14.04
2023-05-25T02:38:57.594Z,14.07
2023-05-25T02:39:57.516Z,14.04
2023-05-25T02:40:57.442Z,14.04
2023-05-25T02:41:57.378Z,14.03
2023-05-25T02:42:57.295Z,14.07
2023-05-25T02:43:57.205Z,14.05
2023-05-25T02:44:57.128Z,14.07
2023-05-25T02:45:57.038Z,13.96
2023-05-25T02:46:57.030Z,14.08
2023-05-25T02:47:56.916Z,14.08
2023-05-25T02:48:56.800Z,13.96
2023-05-25T02:49:56.731Z,14.03
2023-05-25T02:50:56.649Z,14.03
2023-05-25T02:51:56.559Z,13.95
2023-05-25T02:52:56.478Z,14.05
2023-05-25T02:53:56.401Z,13.97
2023-05-25T02:54:56.321Z,14.00
2023-05-25T02:55:56.237Z,13.97
2023-05-25T02:56:56.167Z,14.03
2023-05-25T02:57:56.086Z,13.97
2023-05-25T02:58:55.997Z,14.03
2023-05-25T02:59:55.922Z,13.92
2023-05-25T03:00:55.890Z,13.95
2023-05-25T03:01:55.767Z,13.97
2023-05-25T03:02:55.798Z,13.92
2023-05-25T03:03:55.661Z,13.95
2023-05-25T03:04:55.522Z,13.97
2023-05-25T03:05:55.445Z,13.96
2023-05-25T03:06:55.373Z,13.97
2023-05-25T03:07:55.287Z,13.95
2023-05-25T03:08:55.241Z,13.92
2023-05-25T03:09:55.129Z,13.95
2023-05-25T03:10:55.054Z,13.99
2023-05-25T03:11:54.976Z,13.96
2023-05-25T03:12:54.894Z,13.92
2023-05-25T03:13:54.808Z,13.97
2023-05-25T03:14:54.759Z,13.97
2023-05-25T03:15:54.664Z,13.89
2023-05-25T03:16:54.599Z,13.96
2023-05-25T03:17:54.553Z,13.92
2023-05-25T03:18:54.411Z,13.89
2023-05-25T03:19:54.345Z,13.97
2023-05-25T03:20:54.251Z,13.92
2023-05-25T03:21:54.176Z,13.96
2023-05-25T03:22:54.095Z,13.92
2023-05-25T03:23:54.017Z,13.93
2023-05-25T03:24:53.934Z,13.90
2023-05-25T03:25:53.859Z,13.96
2023-05-25T03:26:53.773Z,13.97
2023-05-25T03:27:53.701Z,13.97
2023-05-25T03:28:53.619Z,13.93
2023-05-25T03:29:53.532Z,13.92
2023-05-25T03:30:53.479Z,13.92
2023-05-25T03:31:53.421Z,13.89
2023-05-25T03:32:53.322Z,13.93
2023-05-25T03:33:53.215Z,13.96
2023-05-25T03:34:53.145Z,13.96
2023-05-25T03:35:53.065Z,13.92
2023-05-25T03:36:52.980Z,13.90
2023-05-25T03:37:52.896Z,13.90
2023-05-25T03:38:52.821Z,13.93
2023-05-25T03:39:52.751Z,13.96
2023-05-25T03:40:52.657Z,13.96
2023-05-25T03:41:52.597Z,13.92
2023-05-25T03:42:52.506Z,13.90
2023-05-25T03:43:52.435Z,13.93
2023-05-25T03:44:52.343Z,13.97
2023-05-25T03:45:52.275Z,13.90
2023-05-25T03:46:52.188Z,13.93
2023-05-25T03:47:52.133Z,13.95
2023-05-25T03:48:52.025Z,13.87
2023-05-25T03:49:51.947Z,13.87
2023-05-25T03:50:51.881Z,13.85
2023-05-25T03:51:51.787Z,13.79
2023-05-25T03:52:51.703Z,13.85
2023-05-25T03:53:51.621Z,13.77
2023-05-25T03:54:51.551Z,13.83
2023-05-25T03:55:51.469Z,13.87
2023-05-25T03:56:51.383Z,13.72
2023-05-25T03:57:51.306Z,13.79
2023-05-25T03:58:51.229Z,13.87
2023-05-25T03:59:51.150Z,13.87
2023-05-25T04:00:51.066Z,13.89
2023-05-25T04:01:50.993Z,13.75
2023-05-25T04:02:50.945Z,13.83
2023-05-25T04:03:50.991Z,13.77
2023-05-25T04:04:50.887Z,13.83
2023-05-25T04:05:50.670Z,13.85
2023-05-25T04:06:50.593Z,13.90
2023-05-25T04:07:50.515Z,13.72
2023-05-25T04:08:50.426Z,13.87
2023-05-25T04:09:50.349Z,13.87
2023-05-25T04:10:50.267Z,13.77
2023-05-25T04:11:50.187Z,13.86
2023-05-25T04:12:50.116Z,13.77
2023-05-25T04:13:50.034Z,13.87
2023-05-25T04:14:49.951Z,13.78
2023-05-25T04:15:49.870Z,13.78
2023-05-25T04:16:49.896Z,13.83
2023-05-25T04:17:49.768Z,13.83
2023-05-25T04:18:49.631Z,13.83
2023-05-25T04:19:49.549Z,13.83
2023-05-25T04:20:49.482Z,13.95
2023-05-25T04:21:49.391Z,13.81
2023-05-25T04:22:49.316Z,13.93
2023-05-25T04:23:49.231Z,13.92
2023-05-25T04:24:49.152Z,13.93
2023-05-25T04:25:49.076Z,13.92
2023-05-25T04:26:49.005Z,13.83
2023-05-25T04:27:48.921Z,13.79
2023-05-25T04:28:48.836Z,13.83
2023-05-25T04:29:48.761Z,13.79
2023-05-25T04:30:48.676Z,13.83
2023-05-25T04:31:48.623Z,13.85
2023-05-25T04:32:48.607Z,13.86
2023-05-25T04:33:48.451Z,13.79
2023-05-25T04:34:48.414Z,13.83
2023-05-25T04:35:48.279Z,13.81
2023-05-25T04:36:48.198Z,13.86
2023-05-25T04:37:48.121Z,13.92
2023-05-25T04:38:48.110Z,13.93
2023-05-25T04:39:47.958Z,13.97
2023-05-25T04:40:47.878Z,13.99
2023-05-25T04:41:47.800Z,13.97
2023-05-25T04:42:47.730Z,13.90
2023-05-25T04:44:04.731Z,13.99
2023-05-25T04:44:47.560Z,13.96
2023-05-25T04:45:47.731Z,13.97
2023-05-25T04:46:47.406Z,13.96
2023-05-25T04:47:47.364Z,14.05
2023-05-25T04:48:47.248Z,14.07
2023-05-25T04:49:47.165Z,14.07
2023-05-25T04:50:47.087Z,14.07
2023-05-25T04:51:47.010Z,14.05
2023-05-25T04:52:46.931Z,14.05
2023-05-25T04:53:46.852Z,14.05
2023-05-25T04:54:46.773Z,14.05
2023-05-25T04:55:46.858Z,14.08
2023-05-25T04:56:46.621Z,14.04
2023-05-25T04:57:46.533Z,14.11
2023-05-25T04:58:46.457Z,14.10
2023-05-25T04:59:46.368Z,14.05
2023-05-25T05:00:46.437Z,14.17
2023-05-25T05:01:46.340Z,14.25
2023-05-25T05:02:46.229Z,14.18
2023-05-25T05:03:46.104Z,14.29
2023-05-25T05:04:45.974Z,14.33
2023-05-25T05:05:46.074Z,14.26
2023-05-25T05:06:45.821Z,14.26
2023-05-25T05:07:45.738Z,14.22
2023-05-25T05:08:45.661Z,14.28
2023-05-25T05:09:45.587Z,14.12
2023-05-25T05:10:45.706Z,14.07
2023-05-25T05:11:45.426Z,14.12
2023-05-25T05:12:45.339Z,14.07
2023-05-25T05:13:45.268Z,14.10
2023-05-25T05:14:45.210Z,14.04
2023-05-25T05:15:45.243Z,14.11
2023-05-25T05:16:45.053Z,14.14
2023-05-25T05:17:45.000Z,14.11
2023-05-25T05:18:44.866Z,14.18
2023-05-25T05:19:44.787Z,14.25
2023-05-25T05:20:44.813Z,14.23
2023-05-25T05:21:44.638Z,14.28
2023-05-25T05:22:44.550Z,14.26
2023-05-25T05:23:44.473Z,14.29
2023-05-25T05:24:44.416Z,14.26
2023-05-25T05:25:44.517Z,14.29
2023-05-25T05:26:55.581Z,14.23
2023-05-25T05:27:44.151Z,14.29
2023-05-25T05:28:44.072Z,14.26
2023-05-25T05:29:43.990Z,14.30
2023-05-25T05:30:43.910Z,14.30
2023-05-25T05:31:43.856Z,14.33
2023-05-25T05:32:45.310Z,14.36
2023-05-25T05:33:43.742Z,14.33
2023-05-25T05:34:43.596Z,14.35
2023-05-25T05:35:43.780Z,14.35
2023-05-25T05:36:55.800Z,14.40
2023-05-25T05:37:43.369Z,14.35
2023-05-25T05:38:43.276Z,14.44
2023-05-25T05:39:43.196Z,14.48
2023-05-25T05:40:43.132Z,14.58
2023-05-25T05:41:43.042Z,14.55
2023-05-25T05:42:42.967Z,14.54
2023-05-25T05:43:42.897Z,14.58
2023-05-25T05:44:42.800Z,14.63
2023-05-25T05:45:43.068Z,14.50
2023-05-25T05:46:42.716Z,14.53
2023-05-25T05:47:42.592Z,14.60
2023-05-25T05:48:42.496Z,14.58
2023-05-25T05:49:42.411Z,14.62
2023-05-25T05:50:42.626Z,14.59
2023-05-25T05:51:42.250Z,14.68
2023-05-25T05:52:42.171Z,14.66
2023-05-25T05:53:42.092Z,14.73
2023-05-25T05:54:42.015Z,14.73
2023-05-25T05:55:42.011Z,14.78
2023-05-25T05:56:41.851Z,14.78
2023-05-25T05:57:41.787Z,14.82
2023-05-25T05:58:41.697Z,14.79
2023-05-25T05:59:41.621Z,14.77
2023-05-25T06:00:41.548Z,14.88
2023-05-25T06:01:41.497Z,14.97
2023-05-25T06:02:42.039Z,15.09
2023-05-25T06:03:41.298Z,15.25
2023-05-25T06:04:41.222Z,15.42
2023-05-25T06:05:41.199Z,15.47
2023-05-25T06:06:41.069Z,15.49
2023-05-25T06:07:40.987Z,15.49
2023-05-25T06:08:40.921Z,15.43
2023-05-25T06:09:40.828Z,15.37
2023-05-25T06:10:40.757Z,15.39
2023-05-25T06:11:40.669Z,15.22
2023-05-25T06:12:40.586Z,15.24
2023-05-25T06:13:40.514Z,15.22
2023-05-25T06:14:40.456Z,15.27
2023-05-25T06:15:40.365Z,15.25
2023-05-25T06:16:40.280Z,15.25
2023-05-25T06:17:40.233Z,15.28
2023-05-25T06:18:40.124Z,15.21
2023-05-25T06:19:40.035Z,15.19
2023-05-25T06:20:39.991Z,15.21
2023-05-25T06:21:39.881Z,15.36
2023-05-25T06:22:39.808Z,15.25
2023-05-25T06:23:39.737Z,15.28
2023-05-25T06:24:39.651Z,15.22
2023-05-25T06:25:39.562Z,15.29
2023-05-25T06:26:39.484Z,15.21
2023-05-25T06:27:39.408Z,15.28
2023-05-25T06:28:39.340Z,15.28
2023-05-25T06:29:39.249Z,15.28
2023-05-25T06:30:39.178Z,15.37
2023-05-25T06:31:39.126Z,15.39
2023-05-25T06:32:39.085Z,15.31
2023-05-25T06:33:38.935Z,15.47
2023-05-25T06:34:38.864Z,15.44
2023-05-25T06:35:38.784Z,15.47
2023-05-25T06:36:38.704Z,15.44
2023-05-25T06:37:38.623Z,15.47
2023-05-25T06:38:38.540Z,15.61
2023-05-25T06:39:38.467Z,15.61
2023-05-25T06:40:38.408Z,15.58
2023-05-25T06:41:38.304Z,15.67
2023-05-25T06:42:38.234Z,15.68
2023-05-25T06:43:38.148Z,15.72
2023-05-25T06:44:38.076Z,15.73
2023-05-25T06:45:37.990Z,15.82
2023-05-25T06:46:37.936Z,15.80
2023-05-25T06:47:37.839Z,15.82
2023-05-25T06:48:37.753Z,15.92
2023-05-25T06:49:37.686Z,15.84
2023-05-25T06:50:37.599Z,15.80
2023-05-25T06:51:37.584Z,15.90
2023-05-25T06:52:37.453Z,15.97
2023-05-25T06:53:37.356Z,15.98
2023-05-25T06:54:37.290Z,15.98
2023-05-25T06:55:37.210Z,15.92
2023-05-25T06:56:37.217Z,15.92
2023-05-25T06:57:37.054Z,15.97
2023-05-25T06:58:36.966Z,16.01
2023-05-25T06:59:36.890Z,16.01
2023-05-25T07:00:36.809Z,15.95
2023-05-25T07:01:36.879Z,15.98
2023-05-25T07:02:36.704Z,16.10
2023-05-25T07:03:36.582Z,16.01
2023-05-25T07:04:36.523Z,16.09
2023-05-25T07:05:36.423Z,16.09
2023-05-25T07:06:36.338Z,16.12
2023-05-25T07:07:36.266Z,16.17
2023-05-25T07:08:36.188Z,16.17
2023-05-25T07:09:36.108Z,16.24
2023-05-25T07:10:36.030Z,16.23
2023-05-25T07:11:35.956Z,16.23
2023-05-25T07:12:35.877Z,16.23
2023-05-25T07:13:35.791Z,16.32
2023-05-25T07:14:35.714Z,16.39
2023-05-25T07:15:35.637Z,16.41
2023-05-25T07:16:35.659Z,16.50
2023-05-25T07:17:35.496Z,16.42
2023-05-25T07:18:35.398Z,16.56
2023-05-25T07:19:35.328Z,16.60
2023-05-25T07:20:35.336Z,16.58
2023-05-25T07:21:35.167Z,16.57
2023-05-25T07:22:35.085Z,16.53
2023-05-25T07:23:35.013Z,16.51
2023-05-25T07:24:34.943Z,16.66
2023-05-25T07:25:34.853Z,16.60
2023-05-25T07:26:34.779Z,16.65
2023-05-25T07:27:34.697Z,16.65
2023-05-25T07:28:34.628Z,16.74
2023-05-25T07:29:34.544Z,16.76
2023-05-25T07:30:34.461Z,16.78
2023-05-25T07:31:34.399Z,16.74
2023-05-25T07:32:34.317Z,16.78
2023-05-25T07:33:34.240Z,16.86
2023-05-25T07:34:34.146Z,16.83
2023-05-25T07:35:34.075Z,16.87
2023-05-25T07:36:34.002Z,16.89
2023-05-25T07:37:33.925Z,16.99
2023-05-25T07:38:33.839Z,17.01
2023-05-25T07:39:33.768Z,16.97
2023-05-25T07:40:33.687Z,17.11
2023-05-25T07:41:33.607Z,17.09
2023-05-25T07:42:33.527Z,17.08
2023-05-25T07:43:33.441Z,17.15
2023-05-25T07:44:33.374Z,17.19
2023-05-25T07:45:33.286Z,17.26
2023-05-25T07:46:33.254Z,17.27
2023-05-25T07:47:33.159Z,17.23
2023-05-25T07:48:33.063Z,17.29
2023-05-25T07:49:33.003Z,17.29
2023-05-25T07:50:32.916Z,17.33
2023-05-25T07:51:32.858Z,17.26
2023-05-25T07:52:32.754Z,17.30
2023-05-25T07:53:32.671Z,17.38
2023-05-25T07:54:32.626Z,17.34
2023-05-25T07:55:32.513Z,17.36
2023-05-25T07:56:32.441Z,17.41
2023-05-25T07:57:32.358Z,17.39
2023-05-25T07:58:32.282Z,17.45
2023-05-25T07:59:32.196Z,17.42
2023-05-25T08:00:32.143Z,17.45
2023-05-25T08:01:32.039Z,17.52
2023-05-25T08:02:32.050Z,17.48
2023-05-25T08:03:44.280Z,17.51
2023-05-25T08:04:31.959Z,17.54
2023-05-25T08:05:31.734Z,17.56
2023-05-25T08:06:31.659Z,17.54
2023-05-25T08:07:31.833Z,17.56
2023-05-25T08:08:31.498Z,17.60
2023-05-25T08:09:31.427Z,17.63
2023-05-25T08:10:31.365Z,17.63
2023-05-25T08:11:31.268Z,17.67
2023-05-25T08:12:47.058Z,17.78
2023-05-25T08:13:31.104Z,17.80
2023-05-25T08:14:31.039Z,17.74
2023-05-25T08:15:30.956Z,17.76
2023-05-25T08:16:30.915Z,17.85
2023-05-25T08:17:30.821Z,17.82
2023-05-25T08:18:30.730Z,17.86
2023-05-25T08:19:30.638Z,17.95
2023-05-25T08:20:30.610Z,17.87
2023-05-25T08:21:31.025Z,17.92
2023-05-25T08:22:30.413Z,17.94
2023-05-25T08:23:30.329Z,17.87
2023-05-25T08:24:30.256Z,17.92
2023-05-25T08:25:30.182Z,17.94
2023-05-25T08:26:41.837Z,17.92
2023-05-25T08:27:30.019Z,17.95
2023-05-25T08:28:29.946Z,17.94
2023-05-25T08:29:29.864Z,17.92
2023-05-25T08:30:29.783Z,18.08
2023-05-25T08:31:29.749Z,18.03
2023-05-25T08:32:29.656Z,18.05
2023-05-25T08:33:29.564Z,18.10
2023-05-25T08:34:29.472Z,18.04
2023-05-25T08:35:29.398Z,18.07
2023-05-25T08:36:29.321Z,18.18
2023-05-25T08:37:29.255Z,18.10
2023-05-25T08:38:29.169Z,18.13
2023-05-25T08:39:29.089Z,18.18
2023-05-25T08:40:29.015Z,18.26
2023-05-25T08:41:28.930Z,18.28
2023-05-25T08:42:28.867Z,18.33
2023-05-25T08:43:28.781Z,18.38
2023-05-25T08:44:28.705Z,18.33
2023-05-25T08:45:35.832Z,18.45
2023-05-25T08:46:28.550Z,18.40
2023-05-25T08:47:28.496Z,18.44
2023-05-25T08:48:40.045Z,18.50
2023-05-25T08:49:28.381Z,18.44
2023-05-25T08:50:28.236Z,18.53
2023-05-25T08:51:28.163Z,18.55
2023-05-25T08:52:28.080Z,18.65
2023-05-25T08:53:28.005Z,18.59
2023-05-25T08:54:27.937Z,18.66
2023-05-25T08:55:27.868Z,18.60
2023-05-25T08:56:27.777Z,18.63
2023-05-25T08:57:27.707Z,18.68
2023-05-25T08:58:27.616Z,18.77
2023-05-25T08:59:27.565Z,18.80
2023-05-25T09:00:27.470Z,18.80
2023-05-25T09:01:27.445Z,18.77
2023-05-25T09:02:27.329Z,18.77
2023-05-25T09:03:27.310Z,18.74
2023-05-25T09:04:27.173Z,18.80
2023-05-25T09:05:27.082Z,18.81
2023-05-25T09:06:27.018Z,18.81
2023-05-25T09:07:26.929Z,18.77
2023-05-25T09:08:26.853Z,18.75
2023-05-25T09:09:26.773Z,18.78
2023-05-25T09:10:26.696Z,18.81
2023-05-25T09:11:37.290Z,18.81
2023-05-25T09:12:26.542Z,18.75
2023-05-25T09:13:26.463Z,18.83
2023-05-25T09:14:26.390Z,18.84
2023-05-25T09:15:26.309Z,18.77
2023-05-25T09:16:26.326Z,18.86
2023-05-25T09:17:26.153Z,18.95
2023-05-25T09:18:26.169Z,18.99
2023-05-25T09:19:26.005Z,18.93
2023-05-25T09:20:26.005Z,18.96
2023-05-25T09:21:25.849Z,18.92
2023-05-25T09:22:25.775Z,19.00
2023-05-25T09:23:25.699Z,19.09
2023-05-25T09:24:25.617Z,19.08
2023-05-25T09:25:25.543Z,19.07
2023-05-25T09:26:25.467Z,19.16
2023-05-25T09:27:25.392Z,19.15
2023-05-25T09:28:27.344Z,19.27
2023-05-25T09:29:25.241Z,19.30
2023-05-25T09:30:25.173Z,19.30
2023-05-25T09:31:25.153Z,19.34
2023-05-25T09:32:25.112Z,19.41
2023-05-25T09:33:24.946Z,19.37
2023-05-25T09:34:24.867Z,19.31
2023-05-25T09:35:24.778Z,19.36
2023-05-25T09:36:24.772Z,19.34
2023-05-25T09:37:24.712Z,19.33
2023-05-25T09:38:24.705Z,19.37
2023-05-25T09:39:24.601Z,19.37
2023-05-25T09:40:24.399Z,19.41
2023-05-25T09:41:24.321Z,19.40
2023-05-25T09:42:24.254Z,19.54
2023-05-25T09:43:36.516Z,19.52
2023-05-25T09:44:24.095Z,19.51
2023-05-25T09:45:24.014Z,19.56
2023-05-25T09:46:23.972Z,19.59
2023-05-25T09:47:23.890Z,19.62
2023-05-25T09:48:23.783Z,19.59
2023-05-25T09:49:23.722Z,19.59
2023-05-25T09:50:23.638Z,19.67
2023-05-25T09:51:23.556Z,19.70
2023-05-25T09:52:23.497Z,19.79
2023-05-25T09:53:23.400Z,19.81
2023-05-25T09:54:23.330Z,19.84
2023-05-25T09:55:23.258Z,19.76
2023-05-25T09:56:23.175Z,19.79
2023-05-25T09:57:23.103Z,19.84
2023-05-25T09:58:23.020Z,19.76
2023-05-25T09:59:22.944Z,19.84
2023-05-25T10:00:22.865Z,19.85
2023-05-25T10:01:22.819Z,19.88
2023-05-25T10:02:22.751Z,19.88
2023-05-25T10:03:22.686Z,19.91
2023-05-25T10:04:22.573Z,19.89
2023-05-25T10:05:22.482Z,19.92
2023-05-25T10:06:22.418Z,19.92
2023-05-25T10:07:22.326Z,20.07
2023-05-25T10:08:22.255Z,20.10
2023-05-25T10:09:22.193Z,20.09
2023-05-25T10:10:22.104Z,20.10
2023-05-25T10:11:22.025Z,20.11
2023-05-25T10:12:21.952Z,20.25
2023-05-25T10:13:21.884Z,20.19
2023-05-25T10:14:21.798Z,20.28
2023-05-25T10:15:21.720Z,20.24
2023-05-25T10:16:21.664Z,20.40
2023-05-25T10:17:21.584Z,20.36
2023-05-25T10:18:21.493Z,20.36
2023-05-25T10:19:21.419Z,20.47
2023-05-25T10:20:21.379Z,20.50
2023-05-25T10:21:21.262Z,20.48
2023-05-25T10:22:21.202Z,20.59
2023-05-25T10:23:21.113Z,20.60
2023-05-25T10:24:21.043Z,20.65
2023-05-25T10:25:20.972Z,20.75
2023-05-25T10:26:20.889Z,20.69
2023-05-25T10:27:26.908Z,20.74
2023-05-25T10:28:20.728Z,20.81
2023-05-25T10:29:20.671Z,20.77
2023-05-25T10:30:20.585Z,20.77
2023-05-25T10:31:20.526Z,20.75
2023-05-25T10:32:20.450Z,20.87
2023-05-25T10:33:20.392Z,20.81
2023-05-25T10:34:20.278Z,20.85
2023-05-25T10:35:20.203Z,20.84
2023-05-25T10:36:20.120Z,20.95
2023-05-25T10:37:20.050Z,21.00
2023-05-25T10:38:19.976Z,20.96
2023-05-25T10:39:19.900Z,20.96
2023-05-25T10:40:19.819Z,21.09
2023-05-25T10:41:19.751Z,21.14
2023-05-25T10:42:19.669Z,21.11
2023-05-25T10:43:19.598Z,21.17
2023-05-25T10:44:19.521Z,21.12
2023-05-25T10:45:19.444Z,21.06
2023-05-25T10:46:19.400Z,21.11
2023-05-25T10:47:19.417Z,21.11
2023-05-25T10:48:19.211Z,21.20
2023-05-25T10:49:19.142Z,21.12
2023-05-25T10:50:19.066Z,21.22
2023-05-25T10:51:18.991Z,21.24
2023-05-25T10:52:18.923Z,21.32
2023-05-25T10:53:18.847Z,21.37
2023-05-25T10:54:18.765Z,21.43
2023-05-25T10:55:18.692Z,21.48
2023-05-25T10:56:18.623Z,21.51
2023-05-25T10:57:18.548Z,21.60
2023-05-25T10:58:18.465Z,21.57
2023-05-25T10:59:18.392Z,21.50
2023-05-25T11:00:18.361Z,21.55
2023-05-25T11:01:18.300Z,21.57
2023-05-25T11:02:18.226Z,21.54
2023-05-25T11:03:18.085Z,21.62
2023-05-25T11:04:18.048Z,21.64
2023-05-25T11:05:17.961Z,21.67
2023-05-25T11:06:17.861Z,21.75
2023-05-25T11:07:17.785Z,21.80
2023-05-25T11:08:17.710Z,21.89
2023-05-25T11:09:17.640Z,21.85
2023-05-25T11:10:17.556Z,21.82
2023-05-25T11:11:17.482Z,21.92
2023-05-25T11:12:17.418Z,22.06
2023-05-25T11:13:17.347Z,22.06
2023-05-25T11:14:17.264Z,22.10
2023-05-25T11:15:17.185Z,22.14
2023-05-25T11:16:17.132Z,22.17
2023-05-25T11:17:17.145Z,22.14
2023-05-25T11:18:16.961Z,22.26
2023-05-25T11:19:16.892Z,22.33
2023-05-25T11:20:16.843Z,22.41
2023-05-25T11:21:16.737Z,22.50
2023-05-25T11:22:16.693Z,22.48
2023-05-25T11:23:16.586Z,22.60
2023-05-25T11:24:16.526Z,22.63
2023-05-25T11:25:16.442Z,22.69
2023-05-25T11:26:16.369Z,22.69
2023-05-25T11:27:16.298Z,22.75
2023-05-25T11:28:16.221Z,22.68
2023-05-25T11:29:16.212Z,22.72
2023-05-25T11:30:16.068Z,22.75
2023-05-25T11:31:16.036Z,22.80
2023-05-25T11:32:15.929Z,22.84
2023-05-25T11:33:15.901Z,22.72
2023-05-25T11:34:15.797Z,22.73
2023-05-25T11:35:15.705Z,22.76
2023-05-25T11:36:15.632Z,22.75
2023-05-25T11:37:15.553Z,22.81
2023-05-25T11:38:15.480Z,22.88
2023-05-25T11:39:22.419Z,22.96
2023-05-25T11:40:15.436Z,22.94
2023-05-25T11:41:15.251Z,23.00
2023-05-25T11:42:15.178Z,23.06
2023-05-25T11:43:15.107Z,23.03
2023-05-25T11:44:15.030Z,22.99
2023-05-25T11:45:14.959Z,22.99
2023-05-25T11:46:14.917Z,23.06
2023-05-25T11:47:14.807Z,23.02
2023-05-25T11:48:14.827Z,23.12
2023-05-25T11:49:14.664Z,23.18
2023-05-25T11:50:14.586Z,23.23
2023-05-25T11:51:14.518Z,23.27
2023-05-25T11:52:14.436Z,23.27
2023-05-25T11:53:14.357Z,23.15
2023-05-25T11:54:14.288Z,23.20
2023-05-25T11:55:14.214Z,23.25
2023-05-25T11:56:18.131Z,23.28
2023-05-25T11:57:14.071Z,23.39
2023-05-25T11:58:14.002Z,23.32
2023-05-25T11:59:13.931Z,23.40
2023-05-25T12:00:13.855Z,23.51
2023-05-25T12:01:13.778Z,23.48
2023-05-25T12:02:13.736Z,23.47
2023-05-25T12:04:13.677Z,23.62
2023-05-25T12:05:13.488Z,23.65
2023-05-25T12:06:13.397Z,23.69
2023-05-25T12:07:13.329Z,23.73
2023-05-25T12:08:13.259Z,23.71
2023-05-25T12:09:13.179Z,23.81
2023-05-25T12:10:13.103Z,23.86
2023-05-25T12:11:13.039Z,23.78
2023-05-25T12:12:12.964Z,23.88
2023-05-25T12:13:12.904Z,23.86
2023-05-25T12:14:12.808Z,23.92
2023-05-25T12:15:12.738Z,24.01
2023-05-25T12:16:12.699Z,24.13
2023-05-25T12:17:12.689Z,24.16
2023-05-25T12:18:12.546Z,24.21
2023-05-25T12:19:12.444Z,24.18
2023-05-25T12:20:12.404Z,24.32
2023-05-25T12:21:12.299Z,24.43
2023-05-25T12:22:12.224Z,24.48
2023-05-25T12:23:12.156Z,24.48
2023-05-25T12:24:12.085Z,24.50
2023-05-25T12:25:12.007Z,24.55
2023-05-25T12:26:11.928Z,24.63
2023-05-25T12:27:12.176Z,24.63
2023-05-25T12:28:11.781Z,24.70
2023-05-25T12:29:11.716Z,24.68
2023-05-25T12:30:11.641Z,24.88
2023-05-25T12:31:11.595Z,24.99
2023-05-25T12:32:11.503Z,25.08
2023-05-25T12:33:11.472Z,25.18
2023-05-25T12:34:11.366Z,25.33
2023-05-25T12:35:11.271Z,25.35
2023-05-25T12:36:11.205Z,25.53
2023-05-25T12:37:11.135Z,25.43
2023-05-25T12:38:11.060Z,25.51
2023-05-25T12:39:10.993Z,25.43
2023-05-25T12:40:10.915Z,25.47
2023-05-25T12:41:10.837Z,25.48
2023-05-25T12:42:10.767Z,25.65
2023-05-25T12:43:10.696Z,25.72
2023-05-25T12:44:10.629Z,25.80
2023-05-25T12:45:10.556Z,25.87
2023-05-25T12:46:10.651Z,25.96
2023-05-25T12:47:10.413Z,26.06
2023-05-25T12:48:10.403Z,26.16
2023-05-25T12:49:10.271Z,26.31
2023-05-25T12:50:10.216Z,26.59
2023-05-25T12:51:10.173Z,26.68
2023-05-25T12:52:10.051Z,26.85